createdAt,value
2019-03-28T00:01:10.736Z,24.07
2019-03-28T00:03:40.962Z,22.73
2019-03-28T00:06:12.281Z,23.53
2019-03-28T00:08:43.966Z,18.97
2019-03-28T00:11:13.952Z,21.70
2019-03-28T00:13:44.160Z,20.90
2019-03-28T00:16:15.150Z,23.07
2019-03-28T00:18:45.221Z,26.03
2019-03-28T00:21:15.158Z,19.67
2019-03-28T00:24:01.782Z,20.47
2019-03-28T00:26:32.828Z,22.00
2019-03-28T00:29:02.887Z,21.70
2019-03-28T00:31:33.029Z,23.47
2019-03-28T00:34:03.198Z,22.70
2019-03-28T00:36:34.360Z,22.33
2019-03-28T00:39:05.521Z,20.23
2019-03-28T00:41:35.699Z,27.87
2019-03-28T00:44:05.900Z,16.97
2019-03-28T00:46:36.951Z,22.07
2019-03-28T00:49:08.744Z,16.33
2019-03-28T00:51:38.890Z,21.70
2019-03-28T00:54:08.975Z,22.37
2019-03-28T00:56:46.884Z,17.17
2019-03-28T00:59:11.878Z,15.70
2019-03-28T01:01:42.026Z,21.73
2019-03-28T01:04:12.287Z,18.70
2019-03-28T01:06:43.441Z,19.27
2019-03-28T01:09:13.650Z,24.63
2019-03-28T01:11:43.621Z,16.50
2019-03-28T01:14:13.744Z,20.47
2019-03-28T01:16:44.854Z,16.10
2019-03-28T01:19:14.903Z,14.30
2019-03-28T01:21:44.852Z,17.63
2019-03-28T01:24:15.003Z,24.77
2019-03-28T01:26:56.748Z,20.00
2019-03-28T01:29:17.814Z,18.80
2019-03-28T01:31:47.766Z,21.10
2019-03-28T01:34:17.846Z,22.20
2019-03-28T01:36:48.955Z,21.03
2019-03-28T01:39:19.107Z,18.40
2019-03-28T01:41:49.141Z,19.73
2019-03-28T01:44:19.233Z,16.57
2019-03-28T01:46:50.474Z,21.17
2019-03-28T01:49:21.618Z,23.83
2019-03-28T01:51:51.653Z,19.83
2019-03-28T01:54:21.823Z,18.30
2019-03-28T01:56:52.992Z,18.27
2019-03-28T01:59:23.186Z,21.50
2019-03-28T02:01:53.243Z,19.87
2019-03-28T02:04:23.318Z,18.57
2019-03-28T02:06:54.582Z,21.17
2019-03-28T02:09:24.670Z,18.07
2019-03-28T02:11:54.727Z,20.73
2019-03-28T02:14:24.859Z,25.50
2019-03-28T02:16:55.995Z,22.60
2019-03-28T02:19:26.036Z,19.97
2019-03-28T02:21:55.983Z,23.40
2019-03-28T02:24:26.307Z,23.77
2019-03-28T02:26:57.708Z,23.00
2019-03-28T02:29:27.770Z,28.53
2019-03-28T02:31:57.716Z,23.00
2019-03-28T02:34:27.779Z,26.73
2019-03-28T02:36:58.926Z,25.67
2019-03-28T02:39:29.069Z,21.97
2019-03-28T02:41:59.147Z,19.23
2019-03-28T02:44:29.358Z,22.90
2019-03-28T02:47:00.531Z,20.17
2019-03-28T02:49:31.603Z,21.97
2019-03-28T02:52:01.767Z,26.57
2019-03-28T02:54:31.967Z,19.23
2019-03-28T02:57:03.182Z,18.27
2019-03-28T02:59:33.370Z,18.57
2019-03-28T03:02:03.627Z,20.00
2019-03-28T03:04:34.935Z,19.60
2019-03-28T03:07:07.146Z,24.57
2019-03-28T03:09:37.308Z,18.57
2019-03-28T03:12:07.302Z,22.70
2019-03-28T03:14:37.601Z,19.20
2019-03-28T03:17:08.967Z,18.77
2019-03-28T03:19:39.124Z,16.97
2019-03-28T03:22:09.162Z,17.83
2019-03-28T03:24:39.247Z,20.07
2019-03-28T03:27:10.323Z,21.17
2019-03-28T03:29:40.469Z,15.70
2019-03-28T03:32:11.531Z,19.97
2019-03-28T03:34:41.683Z,16.53
2019-03-28T03:37:12.742Z,19.03
2019-03-28T03:39:42.835Z,22.53
2019-03-28T03:42:12.871Z,17.77
2019-03-28T03:44:43.021Z,22.67
2019-03-28T03:47:14.548Z,23.03
2019-03-28T03:49:45.694Z,22.37
2019-03-28T03:52:15.916Z,18.17
2019-03-28T03:54:46.037Z,16.97
2019-03-28T03:57:17.356Z,18.47
2019-03-28T03:59:47.537Z,17.70
2019-03-28T04:02:17.665Z,15.77
2019-03-28T04:04:48.007Z,23.40
2019-03-28T04:07:19.340Z,17.33
2019-03-28T04:09:49.550Z,17.60
2019-03-28T04:12:19.661Z,17.77
2019-03-28T04:14:49.991Z,16.47
2019-03-28T04:17:21.650Z,19.47
2019-03-28T04:19:51.956Z,18.23
2019-03-28T04:22:22.042Z,21.63
2019-03-28T04:24:52.236Z,15.27
2019-03-28T04:27:23.369Z,16.43
2019-03-28T04:29:53.686Z,15.13
2019-03-28T04:32:23.776Z,15.77
2019-03-28T04:34:53.986Z,17.70
2019-03-28T04:37:25.165Z,17.20
2019-03-28T04:39:55.344Z,14.43
2019-03-28T04:42:25.432Z,14.20
2019-03-28T04:44:55.679Z,18.33
2019-03-28T04:47:26.871Z,19.50
2019-03-28T04:49:58.042Z,16.70
2019-03-28T04:52:31.864Z,13.83
2019-03-28T04:55:01.013Z,15.97
2019-03-28T04:57:32.340Z,20.47
2019-03-28T05:00:02.556Z,14.50
2019-03-28T05:02:32.928Z,12.10
2019-03-28T05:05:03.117Z,14.67
2019-03-28T05:07:34.453Z,15.87
2019-03-28T05:10:07.290Z,13.40
2019-03-28T05:12:37.382Z,13.00
2019-03-28T05:15:11.103Z,14.50
2019-03-28T05:17:42.352Z,12.00
2019-03-28T05:20:13.427Z,13.17
2019-03-28T05:22:43.725Z,14.97
2019-03-28T05:25:14.006Z,11.80
2019-03-28T05:27:45.265Z,13.70
2019-03-28T05:30:15.660Z,13.70
2019-03-28T05:32:45.749Z,16.60
2019-03-28T05:35:15.965Z,15.07
2019-03-28T05:37:48.222Z,15.23
2019-03-28T05:40:18.515Z,20.33
2019-03-28T05:42:48.595Z,17.57
2019-03-28T05:45:18.830Z,12.80
2019-03-28T05:47:50.034Z,48.20
2019-03-28T05:50:21.151Z,34.47
2019-03-28T05:52:51.301Z,32.10
2019-03-28T05:55:21.954Z,16.77
2019-03-28T05:57:55.878Z,18.92
2019-03-28T06:00:26.543Z,15.00
2019-03-28T06:02:57.081Z,16.23
2019-03-28T06:05:27.746Z,15.00
2019-03-28T06:07:59.491Z,17.37
2019-03-28T06:10:30.123Z,12.95
2019-03-28T06:13:00.651Z,9.60
2019-03-28T06:15:31.361Z,12.82
2019-03-28T06:18:03.046Z,13.05
2019-03-28T06:20:44.147Z,13.85
2019-03-28T06:23:14.682Z,15.90
2019-03-28T06:25:45.436Z,15.63
2019-03-28T06:28:16.063Z,13.48
2019-03-28T06:30:46.714Z,17.45
2019-03-28T06:33:17.255Z,13.45
2019-03-28T06:35:48.327Z,17.50
2019-03-28T06:38:19.151Z,14.23
2019-03-28T06:40:49.885Z,15.32
2019-03-28T06:43:20.422Z,25.92
2019-03-28T06:45:51.253Z,65.90
2019-03-28T06:48:21.890Z,16.00
2019-03-28T06:50:53.478Z,20.30
2019-03-28T06:53:23.999Z,12.63
2019-03-28T06:55:54.644Z,12.37
2019-03-28T06:58:26.301Z,17.67
2019-03-28T07:00:56.966Z,19.40
2019-03-28T07:03:27.605Z,14.35
2019-03-28T07:05:58.238Z,20.82
2019-03-28T07:08:28.782Z,14.40
2019-03-28T07:10:59.530Z,61.90
2019-03-28T07:13:30.086Z,46.05
2019-03-28T07:16:00.589Z,17.67
2019-03-28T07:18:30.823Z,15.07
2019-03-28T07:21:01.161Z,22.67
2019-03-28T07:23:31.699Z,12.18
2019-03-28T07:26:04.577Z,10.65
2019-03-28T07:28:35.122Z,11.35
2019-03-28T07:31:05.889Z,12.68
2019-03-28T07:33:36.534Z,13.72
2019-03-28T07:36:07.258Z,11.85
2019-03-28T07:38:37.797Z,12.53
2019-03-28T07:41:09.434Z,10.15
2019-03-28T07:43:39.979Z,12.37
2019-03-28T07:46:11.818Z,8.65
2019-03-28T07:48:42.396Z,12.28
2019-03-28T07:51:14.131Z,12.43
2019-03-28T07:53:44.659Z,11.35
2019-03-28T07:56:15.607Z,10.58
2019-03-28T07:58:46.178Z,10.45
2019-03-28T08:01:18.264Z,12.43
2019-03-28T08:03:48.954Z,11.25
2019-03-28T08:06:20.587Z,13.85
2019-03-28T08:08:51.378Z,10.05
2019-03-28T08:11:22.404Z,14.40
2019-03-28T08:13:53.110Z,11.78
2019-03-28T08:16:25.329Z,12.95
2019-03-28T08:18:57.127Z,10.63
2019-03-28T08:21:27.901Z,13.65
2019-03-28T08:23:58.455Z,12.18
2019-03-28T08:26:30.508Z,16.32
2019-03-28T08:29:01.245Z,9.43
2019-03-28T08:31:31.693Z,16.37
2019-03-28T08:34:02.333Z,13.35
2019-03-28T08:36:34.347Z,11.53
2019-03-28T08:39:07.070Z,15.32
2019-03-28T08:41:38.214Z,9.70
2019-03-28T08:44:08.822Z,10.38
2019-03-28T08:46:40.722Z,12.47
2019-03-28T08:49:11.346Z,11.28
2019-03-28T08:51:42.708Z,8.63
2019-03-28T08:54:13.240Z,13.60
2019-03-28T08:56:45.091Z,13.32
2019-03-28T08:59:15.711Z,10.35
2019-03-28T09:01:46.260Z,11.33
2019-03-28T09:04:16.491Z,12.53
2019-03-28T09:06:48.223Z,10.63
2019-03-28T09:09:21.211Z,11.22
2019-03-28T09:11:51.245Z,10.43
2019-03-28T09:14:21.891Z,11.33
2019-03-28T09:16:52.666Z,17.48
2019-03-28T09:19:23.217Z,14.18
2019-03-28T09:21:53.951Z,11.03
2019-03-28T09:24:24.481Z,9.90
2019-03-28T09:26:56.251Z,10.72
2019-03-28T09:29:26.883Z,11.60
2019-03-28T09:31:57.729Z,13.20
2019-03-28T09:34:28.435Z,16.20
2019-03-28T09:37:00.231Z,13.60
2019-03-28T09:39:30.860Z,13.08
2019-03-28T09:42:01.595Z,12.93
2019-03-28T09:44:32.122Z,17.80
2019-03-28T09:47:04.043Z,11.78
2019-03-28T09:49:34.919Z,12.30
2019-03-28T09:52:06.944Z,13.75
2019-03-28T09:54:38.003Z,15.68
2019-03-28T09:57:09.863Z,11.53
2019-03-28T09:59:40.396Z,10.32
2019-03-28T10:02:11.112Z,9.25
2019-03-28T10:04:41.669Z,8.50
2019-03-28T10:07:13.404Z,13.48
2019-03-28T10:09:44.352Z,10.78
2019-03-28T10:12:15.232Z,12.33
2019-03-28T10:14:45.842Z,13.10
2019-03-28T10:17:17.699Z,11.12
2019-03-28T10:19:48.344Z,10.45
2019-03-28T10:22:22.160Z,9.75
2019-03-28T10:24:51.211Z,13.88
2019-03-28T10:27:21.910Z,9.33
2019-03-28T10:29:54.334Z,10.53
2019-03-28T10:32:24.990Z,11.43
2019-03-28T10:34:55.515Z,10.75
2019-03-28T10:37:26.170Z,10.58
2019-03-28T10:39:56.713Z,16.60
2019-03-28T10:42:27.350Z,10.08
2019-03-28T10:44:57.899Z,13.25
2019-03-28T10:47:28.840Z,15.03
2019-03-28T10:49:59.499Z,13.38
2019-03-28T10:52:31.119Z,10.08
2019-03-28T10:55:01.693Z,12.10
2019-03-28T10:57:32.562Z,14.03
2019-03-28T11:00:04.668Z,13.93
2019-03-28T11:02:37.327Z,11.18
2019-03-28T11:05:08.365Z,10.15
2019-03-28T11:07:39.100Z,12.35
2019-03-28T11:10:10.063Z,14.15
2019-03-28T11:12:40.889Z,11.90
2019-03-28T11:15:11.565Z,13.65
2019-03-28T11:17:43.510Z,10.85
2019-03-28T11:20:14.358Z,14.15
2019-03-28T11:22:45.106Z,9.78
2019-03-28T11:25:15.740Z,11.28
2019-03-28T11:27:46.478Z,11.48
2019-03-28T11:30:18.514Z,12.20
2019-03-28T11:32:49.440Z,12.93
2019-03-28T11:35:19.966Z,10.13
2019-03-28T11:37:50.757Z,17.30
2019-03-28T11:40:24.449Z,10.35
2019-03-28T11:42:53.935Z,12.68
2019-03-28T11:45:27.051Z,12.43
2019-03-28T11:47:58.231Z,10.40
2019-03-28T11:50:28.769Z,11.63
2019-03-28T11:53:00.517Z,12.10
2019-03-28T11:55:31.038Z,17.00
2019-03-28T11:58:02.859Z,11.03
2019-03-28T12:00:33.376Z,9.83
2019-03-28T12:03:04.032Z,10.48
2019-03-28T12:05:34.659Z,10.35
2019-03-28T12:08:06.443Z,8.35
2019-03-28T12:10:36.966Z,13.50
2019-03-28T12:13:07.692Z,12.70
2019-03-28T12:15:38.354Z,12.93
2019-03-28T12:18:09.158Z,13.13
2019-03-28T12:20:39.672Z,9.43
2019-03-28T12:23:10.298Z,12.88
2019-03-28T12:25:40.265Z,8.33
2019-03-28T12:28:12.090Z,11.63
2019-03-28T12:30:43.746Z,8.73
2019-03-28T12:33:14.773Z,8.20
2019-03-28T12:35:45.570Z,9.75
2019-03-28T12:38:16.426Z,12.37
2019-03-28T12:40:46.959Z,9.33
2019-03-28T12:43:18.742Z,9.08
2019-03-28T12:45:50.022Z,12.23
2019-03-28T12:48:21.253Z,9.43
2019-03-28T12:50:58.672Z,11.88
2019-03-28T12:53:25.699Z,9.43
2019-03-28T12:55:56.235Z,8.80
2019-03-28T12:58:26.985Z,10.40
2019-03-28T13:00:57.994Z,7.95
2019-03-28T13:03:34.796Z,8.45
2019-03-28T13:06:01.417Z,11.48
2019-03-28T13:08:32.110Z,9.58
2019-03-28T13:11:02.695Z,10.15
2019-03-28T13:13:33.449Z,7.35
2019-03-28T13:16:05.561Z,8.33
2019-03-28T13:18:36.555Z,6.20
2019-03-28T13:21:13.502Z,6.83
2019-03-28T13:23:39.342Z,7.17
2019-03-28T13:26:10.955Z,6.75
2019-03-28T13:28:41.648Z,6.55
2019-03-28T13:31:12.177Z,6.40
2019-03-28T13:33:42.914Z,6.83
2019-03-28T13:36:15.506Z,6.83
2019-03-28T13:38:47.342Z,7.22
2019-03-28T13:41:17.885Z,8.70
2019-03-28T13:43:48.609Z,9.65
2019-03-28T13:46:19.286Z,5.05
2019-03-28T13:48:50.102Z,7.00
2019-03-28T13:51:20.938Z,4.90
2019-03-28T13:53:52.195Z,5.53
2019-03-28T13:56:23.024Z,13.10
2019-03-28T13:58:53.639Z,8.75
2019-03-28T14:01:26.270Z,10.55
2019-03-28T14:03:56.444Z,6.35
2019-03-28T14:06:27.078Z,6.60
2019-03-28T14:08:57.723Z,4.97
2019-03-28T14:11:28.564Z,8.38
2019-03-28T14:13:59.368Z,7.75
2019-03-28T14:16:30.284Z,8.23
2019-03-28T14:19:01.040Z,5.67
2019-03-28T14:21:31.836Z,7.60
2019-03-28T14:24:02.632Z,6.15
2019-03-28T14:26:37.425Z,5.60
2019-03-28T14:29:07.133Z,7.92
2019-03-28T14:31:59.829Z,6.47
2019-03-28T14:34:29.535Z,5.12
2019-03-28T14:37:00.262Z,5.22
2019-03-28T14:39:31.064Z,7.70
2019-03-28T14:42:01.753Z,9.68
2019-03-28T14:44:33.550Z,5.25
2019-03-28T14:47:04.224Z,8.60
2019-03-28T14:49:35.262Z,5.87
2019-03-28T14:52:05.990Z,3.75
2019-03-28T14:54:36.692Z,6.60
2019-03-28T14:57:07.846Z,5.55
2019-03-28T14:59:40.271Z,4.40
2019-03-28T15:02:10.898Z,5.58
2019-03-28T15:04:41.583Z,5.05
2019-03-28T15:07:12.133Z,7.40
2019-03-28T15:09:42.779Z,6.50
2019-03-28T15:12:13.304Z,7.05
2019-03-28T15:14:43.990Z,5.47
2019-03-28T15:17:14.621Z,6.80
2019-03-28T15:19:45.402Z,6.70
2019-03-28T15:22:15.931Z,5.22
2019-03-28T15:24:46.712Z,9.85
2019-03-28T15:27:17.403Z,8.90
2019-03-28T15:29:48.035Z,4.97
2019-03-28T15:32:18.747Z,5.97
2019-03-28T15:34:49.482Z,6.47
2019-03-28T15:37:20.029Z,10.80
2019-03-28T15:39:50.915Z,5.33
2019-03-28T15:42:21.639Z,7.85
2019-03-28T15:44:52.479Z,6.37
2019-03-28T15:47:23.202Z,6.22
2019-03-28T15:49:53.996Z,7.50
2019-03-28T15:52:27.295Z,5.12
2019-03-28T15:54:56.885Z,5.53
2019-03-28T15:57:28.558Z,6.40
2019-03-28T15:59:59.191Z,4.25
2019-03-28T16:02:29.713Z,4.40
2019-03-28T16:05:00.467Z,9.18
2019-03-28T16:07:31.016Z,6.42
2019-03-28T16:10:01.738Z,4.95
2019-03-28T16:12:32.684Z,7.08
2019-03-28T16:15:03.741Z,9.23
2019-03-28T16:17:35.967Z,5.95
2019-03-28T16:20:08.138Z,5.92
2019-03-28T16:22:38.866Z,7.60
2019-03-28T16:25:09.907Z,7.55
2019-03-28T16:27:40.444Z,10.18
2019-03-28T16:30:16.160Z,5.97
2019-03-28T16:32:46.728Z,7.03
2019-03-28T16:35:20.914Z,9.98
2019-03-28T16:37:51.078Z,7.50
2019-03-28T16:40:22.782Z,6.62
2019-03-28T16:43:12.790Z,6.45
2019-03-28T16:45:43.513Z,7.85
2019-03-28T16:48:14.162Z,7.28
2019-03-28T16:50:46.873Z,7.55
2019-03-28T16:53:17.543Z,8.55
2019-03-28T16:55:49.011Z,8.15
2019-03-28T16:58:20.095Z,11.12
2019-03-28T17:00:52.112Z,8.30
2019-03-28T17:03:22.872Z,11.88
2019-03-28T17:05:57.668Z,9.95
2019-03-28T17:08:37.680Z,9.63
2019-03-28T17:11:08.455Z,8.68
2019-03-28T17:13:39.237Z,9.93
2019-03-28T17:16:12.370Z,9.08
2019-03-28T17:18:43.878Z,11.65
2019-03-28T17:21:19.521Z,7.80
2019-03-28T17:23:50.713Z,10.18
2019-03-28T17:26:21.537Z,16.60
2019-03-28T17:28:53.174Z,8.88
2019-03-28T17:31:23.933Z,7.60
2019-03-28T17:33:54.536Z,11.20
2019-03-28T17:36:26.841Z,12.93
2019-03-28T17:38:56.867Z,7.90
2019-03-28T17:41:27.566Z,9.15
2019-03-28T17:43:58.205Z,9.08
2019-03-28T17:46:30.178Z,11.75
2019-03-28T17:49:00.821Z,7.08
2019-03-28T17:51:31.575Z,8.50
2019-03-28T17:54:02.224Z,10.65
2019-03-28T17:56:35.994Z,10.48
2019-03-28T17:59:06.538Z,9.03
2019-03-28T18:01:37.375Z,9.80
2019-03-28T18:04:08.035Z,11.50
2019-03-28T18:06:38.952Z,11.65
2019-03-28T18:09:09.559Z,8.28
2019-03-28T18:11:40.415Z,10.80
2019-03-28T18:14:11.029Z,13.28
2019-03-28T18:16:45.245Z,11.73
2019-03-28T18:19:15.368Z,13.32
2019-03-28T18:21:46.136Z,11.95
2019-03-28T18:24:16.660Z,16.70
2019-03-28T18:26:47.633Z,17.75
2019-03-28T18:29:19.334Z,18.82
2019-03-28T18:31:52.379Z,17.00
2019-03-28T18:34:23.427Z,15.28
2019-03-28T18:36:54.140Z,13.00
2019-03-28T18:39:24.673Z,14.85
2019-03-28T18:41:56.632Z,14.30
2019-03-28T18:44:27.503Z,13.98
2019-03-28T18:46:58.346Z,12.75
2019-03-28T18:49:31.074Z,12.80
2019-03-28T18:52:01.532Z,16.55
2019-03-28T18:54:32.140Z,23.02
2019-03-28T18:57:03.852Z,27.40
2019-03-28T18:59:34.514Z,34.90
2019-03-28T19:02:05.261Z,41.77
2019-03-28T19:04:35.822Z,43.33
2019-03-28T19:07:07.744Z,28.62
2019-03-28T19:09:38.290Z,20.68
2019-03-28T19:12:09.032Z,18.98
2019-03-28T19:14:39.082Z,22.55
2019-03-28T19:17:10.824Z,29.77
2019-03-28T19:19:41.382Z,28.38
2019-03-28T19:22:12.213Z,34.20
2019-03-28T19:24:42.767Z,27.80
2019-03-28T19:27:13.787Z,41.37
2019-03-28T19:29:43.762Z,27.02
2019-03-28T19:32:14.514Z,20.45
2019-03-28T19:34:45.043Z,23.87
2019-03-28T19:37:16.212Z,18.05
2019-03-28T19:39:46.922Z,18.85
2019-03-28T19:42:17.989Z,20.90
2019-03-28T19:44:49.470Z,22.48
2019-03-28T19:47:20.334Z,32.40
2019-03-28T19:50:11.735Z,23.57
2019-03-28T19:52:42.894Z,91.82
2019-03-28T19:55:16.597Z,40.50
2019-03-28T19:57:48.765Z,22.48
2019-03-28T20:00:21.238Z,18.48
2019-03-28T20:02:51.446Z,17.23
2019-03-28T20:05:21.406Z,16.87
2019-03-28T20:07:52.045Z,17.98
2019-03-28T20:10:22.700Z,18.07
2019-03-28T20:12:53.467Z,22.48
2019-03-28T20:15:24.086Z,29.42
2019-03-28T20:17:54.766Z,22.73
2019-03-28T20:20:25.325Z,22.15
2019-03-28T20:22:56.157Z,19.40
2019-03-28T20:25:26.707Z,19.85
2019-03-28T20:27:57.434Z,17.25
2019-03-28T20:30:27.949Z,15.55
2019-03-28T20:32:58.919Z,19.50
2019-03-28T20:35:30.091Z,22.75
2019-03-28T20:38:00.844Z,62.65
2019-03-28T20:40:31.399Z,63.38
2019-03-28T20:43:02.484Z,44.10
2019-03-28T20:45:32.523Z,25.65
2019-03-28T20:48:03.278Z,26.48
2019-03-28T20:50:36.738Z,103.97
2019-03-28T20:53:07.562Z,80.62
2019-03-28T20:55:40.784Z,42.33
2019-03-28T20:58:12.442Z,31.82
2019-03-28T21:00:45.268Z,27.37
2019-03-28T21:03:16.332Z,25.00
2019-03-28T21:05:47.748Z,23.02
2019-03-28T21:08:17.935Z,21.45
2019-03-28T21:10:48.477Z,22.37
2019-03-28T21:13:19.143Z,21.25
2019-03-28T21:15:49.991Z,23.32
2019-03-28T21:18:20.062Z,21.37
2019-03-28T21:20:50.704Z,18.85
2019-03-28T21:23:21.398Z,18.45
2019-03-28T21:25:51.912Z,16.67
2019-03-28T21:28:46.425Z,18.60
2019-03-28T21:31:06.779Z,18.23
2019-03-28T21:33:37.390Z,18.10
2019-03-28T21:36:08.012Z,26.25
2019-03-28T21:38:38.089Z,18.60
2019-03-28T21:41:08.200Z,18.90
2019-03-28T21:43:38.326Z,20.30
2019-03-28T21:46:09.447Z,20.00
2019-03-28T21:48:39.602Z,17.42
2019-03-28T21:51:11.609Z,19.25
2019-03-28T21:53:42.003Z,25.77
2019-03-28T21:56:14.375Z,17.98
2019-03-28T21:58:46.490Z,20.85
2019-03-28T22:01:17.201Z,20.25
2019-03-28T22:03:47.872Z,20.88
2019-03-28T22:06:18.731Z,25.08
2019-03-28T22:08:50.655Z,21.17
2019-03-28T22:11:21.622Z,17.45
2019-03-28T22:13:52.814Z,18.45
2019-03-28T22:16:24.031Z,19.48
2019-03-28T22:18:54.497Z,24.13
2019-03-28T22:21:27.334Z,21.97
2019-03-28T22:23:57.354Z,26.48
2019-03-28T22:26:27.362Z,35.65
2019-03-28T22:28:57.707Z,26.48
2019-03-28T22:31:28.226Z,17.50
2019-03-28T22:33:58.870Z,21.52
2019-03-28T22:36:29.486Z,17.70
2019-03-28T22:38:59.842Z,20.50
2019-03-28T22:41:39.701Z,20.12
2019-03-28T22:44:10.034Z,16.00
2019-03-28T22:46:40.099Z,19.03
2019-03-28T22:49:10.744Z,17.70
2019-03-28T22:51:41.444Z,22.55
2019-03-28T22:54:14.368Z,20.05
2019-03-28T22:56:45.692Z,19.25
2019-03-28T22:59:17.318Z,18.05
2019-03-28T23:01:48.349Z,21.65
2019-03-28T23:04:18.736Z,18.98
2019-03-28T23:06:49.150Z,18.50
2019-03-28T23:09:19.379Z,16.20
2019-03-28T23:11:49.536Z,15.47
2019-03-28T23:14:19.693Z,22.27
2019-03-28T23:16:50.882Z,16.80
2019-03-28T23:19:21.058Z,14.47
2019-03-28T23:21:51.581Z,15.88
2019-03-28T23:24:21.798Z,19.17
2019-03-28T23:26:53.393Z,19.27
2019-03-28T23:29:24.030Z,14.33
2019-03-28T23:31:53.973Z,18.60
2019-03-28T23:34:24.040Z,14.83
2019-03-28T23:36:55.073Z,15.03
2019-03-28T23:39:25.807Z,14.33
2019-03-28T23:41:55.843Z,19.60
2019-03-28T23:44:25.902Z,16.47
2019-03-28T23:46:57.949Z,18.27
2019-03-28T23:49:28.034Z,15.30
2019-03-28T23:51:58.059Z,13.00
2019-03-28T23:54:28.191Z,17.17
2019-03-28T23:56:59.373Z,15.17
2019-03-28T23:59:30.458Z,16.37
